Time;durP1;ratioP1;P1;durP2;ratioP2;P2;SDS_P1;SDS_P2;PMS_P1;PMS_P2;Temp;Humidity;BMP_temperature;BMP_pressure;BME280_temperature;BME280_humidity;BME280_pressure;Samples;Min_cycle;Max_cycle;Signal;HPM_P1;HPM_P2
2022/12/14 00:00:11;;;;;;;22.83;12.88;;;;;;;-3.18;60.08;98856.22;10400525;28;20060;-86
2022/12/14 00:05:14;;;;;;;24.70;14.07;;;;;;;-3.05;59.93;98844.84;10398793;28;20139;-88
2022/12/14 00:10:16;;;;;;;22.20;12.63;;;;;;;-3.12;59.67;98843.31;10414870;28;20321;-86
2022/12/14 00:15:18;;;;;;;24.73;13.48;;;;;;;-3.14;59.70;98829.72;10399982;28;20057;-88
2022/12/14 00:20:20;;;;;;;24.95;13.30;;;;;;;-3.14;59.54;98817.75;10399000;28;20061;-86
2022/12/14 00:25:23;;;;;;;26.88;13.02;;;;;;;-3.33;59.52;98816.50;10399618;28;20260;-86
2022/12/14 00:30:24;;;;;;;22.73;12.52;;;;;;;-3.34;60.04;98819.06;10397084;28;20053;-86
2022/12/14 00:35:26;;;;;;;22.80;13.07;;;;;;;-3.29;60.05;98813.00;10399457;28;20414;-86
2022/12/14 00:40:28;;;;;;;20.95;12.40;;;;;;;-3.23;60.23;98809.44;10398471;28;20059;-86
2022/12/14 00:45:30;;;;;;;21.08;12.45;;;;;;;-3.19;59.93;98804.25;10398168;28;20057;-86
2022/12/14 00:50:31;;;;;;;22.58;12.32;;;;;;;-3.11;59.58;98804.06;10398082;28;20049;-86
2022/12/14 00:55:38;;;;;;;22.50;12.60;;;;;;;-3.08;59.51;98804.00;10400198;28;20140;-86
2022/12/14 01:00:40;;;;;;;23.63;13.20;;;;;;;-3.08;59.59;98802.25;10416357;28;20053;-86
2022/12/14 01:05:42;;;;;;;20.25;12.20;;;;;;;-3.01;59.29;98802.97;10398961;28;20061;-86
2022/12/14 01:10:51;;;;;;;21.92;11.68;;;;;;;-3.08;59.53;98788.66;10417153;28;20111;-86
2022/12/14 01:15:52;;;;;;;21.25;12.13;;;;;;;-3.12;59.34;98794.72;10399178;28;20056;-87
2022/12/14 01:20:54;;;;;;;21.40;11.70;;;;;;;-3.31;59.68;98790.88;10396236;28;20048;-86
2022/12/14 01:25:58;;;;;;;20.27;11.50;;;;;;;-3.41;59.41;98774.06;10418379;28;20061;-86
2022/12/14 01:31:15;;;;;;;20.33;11.75;;;;;;;-3.63;59.38;98753.28;10397941;28;20053;-86
2022/12/14 01:36:19;;;;;;;19.60;10.68;;;;;;;-3.69;59.92;98751.66;10398851;28;20961;-86
2022/12/14 01:41:32;;;;;;;18.77;10.85;;;;;;;-3.70;59.69;98738.94;10396635;28;20057;-86
2022/12/14 01:46:49;;;;;;;19.63;10.57;;;;;;;-3.79;59.49;98737.41;10415990;28;20057;-86
2022/12/14 01:52:13;;;;;;;19.35;10.38;;;;;;;-3.84;59.36;98738.41;10396903;28;20060;-86
2022/12/14 01:57:21;;;;;;;19.88;10.55;;;;;;;-3.81;59.62;98746.81;10416023;28;20057;-86
2022/12/14 02:02:23;;;;;;;17.77;10.35;;;;;;;-3.74;59.62;98727.09;10397023;28;20484;-86
2022/12/14 02:07:28;;;;;;;18.20;10.35;;;;;;;-3.75;59.51;98716.03;10403745;28;20065;-86
2022/12/14 02:12:41;;;;;;;19.08;10.25;;;;;;;-3.75;59.46;98705.81;10401997;28;20071;-86
2022/12/14 02:17:45;;;;;;;21.60;10.93;;;;;;;-3.80;59.47;98702.53;10423695;28;20057;-86
2022/12/14 02:23:24;;;;;;;19.08;10.55;;;;;;;-3.86;59.49;98699.28;10404766;28;20049;-86
2022/12/14 02:28:58;;;;;;;19.10;10.40;;;;;;;-3.71;59.58;98707.44;10403404;28;20148;-86
2022/12/14 02:34:28;;;;;;;19.55;10.07;;;;;;;-3.63;59.37;98703.88;10373042;28;20057;-86
2022/12/14 02:40:00;;;;;;;18.85;11.13;;;;;;;-3.71;59.17;98691.28;10401507;28;20426;-86
2022/12/14 02:45:41;;;;;;;18.90;10.68;;;;;;;-3.97;59.21;98673.97;10419489;28;20152;-86
2022/12/14 02:51:13;;;;;;;18.70;10.43;;;;;;;-3.88;58.78;98671.22;10389422;28;20064;-86
2022/12/14 02:57:01;;;;;;;18.85;10.50;;;;;;;-3.77;59.05;98661.59;10401570;28;20060;-85
2022/12/14 03:02:06;;;;;;;19.38;10.43;;;;;;;-3.66;59.30;98651.13;10362166;28;20454;-85
2022/12/14 03:08:00;;;;;;;22.42;11.18;;;;;;;-3.54;58.96;98642.34;10367758;28;20575;-86
2022/12/14 03:13:34;;;;;;;17.30;10.43;;;;;;;-3.41;58.15;98639.47;10357514;28;20053;-86
2022/12/14 03:18:44;;;;;;;20.23;10.95;;;;;;;-3.39;58.56;98626.63;10365453;28;20080;-85
2022/12/14 03:24:16;;;;;;;19.60;10.52;;;;;;;-3.45;58.51;98616.56;10367451;28;20054;-86
2022/12/14 03:29:51;;;;;;;18.52;10.20;;;;;;;-3.74;58.05;98612.16;10381375;28;20053;-86
2022/12/14 03:35:06;;;;;;;22.27;11.20;;;;;;;-3.70;58.72;98604.41;10366392;28;20088;-86
2022/12/14 03:40:11;;;;;;;20.08;10.73;;;;;;;-3.59;58.85;98600.75;10374161;28;20140;-85
2022/12/14 03:45:27;;;;;;;20.75;11.20;;;;;;;-3.43;58.27;98604.59;10366221;28;20108;-86
2022/12/14 03:50:47;;;;;;;20.33;10.77;;;;;;;-3.40;58.55;98604.50;10379845;28;20062;-86
2022/12/14 03:56:12;;;;;;;19.88;11.15;;;;;;;-3.27;58.60;98604.19;10379768;28;20140;-87
2022/12/14 04:01:36;;;;;;;19.13;10.27;;;;;;;-3.13;58.33;98598.69;10364630;28;20058;-86
2022/12/14 04:06:46;;;;;;;20.00;10.15;;;;;;;-3.02;58.19;98594.97;10369259;28;20089;-86
2022/12/14 04:22:56;;;;;;;21.85;11.93;;;;;;;-2.80;57.67;98617.41;10376589;28;20053;-86
2022/12/14 04:28:04;;;;;;;19.30;10.38;;;;;;;-2.96;57.66;98619.56;10358668;28;20064;-86
2022/12/14 04:38:36;;;;;;;18.42;10.32;;;;;;;-2.80;57.72;98609.75;10377542;28;20057;-85
2022/12/14 04:43:44;;;;;;;18.35;10.68;;;;;;;-2.84;57.73;98611.56;10373581;28;20502;-86
2022/12/14 04:48:58;;;;;;;18.65;10.70;;;;;;;-3.04;57.76;98611.25;10375255;28;20049;-86
2022/12/14 04:54:18;;;;;;;18.60;10.57;;;;;;;-2.97;57.56;98605.06;10356622;28;20057;-86
2022/12/14 04:59:21;;;;;;;18.45;10.57;;;;;;;-2.83;57.79;98593.59;10357260;28;20057;-86
2022/12/14 05:04:30;;;;;;;19.33;10.32;;;;;;;-2.88;57.54;98594.63;10355710;28;20427;-86
2022/12/14 05:10:04;;;;;;;17.15;10.10;;;;;;;-3.28;56.16;98589.69;10374421;28;20057;-86
2022/12/14 05:15:22;;;;;;;19.98;10.63;;;;;;;-3.09;57.59;98572.16;10358091;28;20083;-86
2022/12/14 05:20:23;;;;;;;19.65;10.30;;;;;;;-2.93;57.45;98571.72;10375666;28;20059;-86
2022/12/14 05:25:25;;;;;;;18.45;10.40;;;;;;;-2.86;57.39;98557.03;10357370;28;20065;-88
2022/12/14 05:30:27;;;;;;;18.02;10.25;;;;;;;-2.76;57.52;98552.50;10355884;28;20503;-88
2022/12/14 05:35:29;;;;;;;21.10;10.82;;;;;;;-2.93;57.67;98541.03;10356629;28;20061;-88
2022/12/14 05:40:30;;;;;;;17.65;10.60;;;;;;;-2.86;57.14;98541.69;10364469;28;20060;-88
2022/12/14 05:45:32;;;;;;;17.38;9.82;;;;;;;-2.95;56.97;98534.25;10364075;28;20149;-88
2022/12/14 05:50:34;;;;;;;19.63;10.00;;;;;;;-2.79;57.22;98517.59;10371239;28;20067;-88
2022/12/14 05:55:36;;;;;;;16.20;9.77;;;;;;;-3.05;56.91;98504.72;10362968;28;20085;-88
2022/12/14 06:00:38;;;;;;;17.58;9.13;;;;;;;-3.09;56.69;98498.00;10362725;28;20050;-88
2022/12/14 06:05:41;;;;;;;17.33;9.70;;;;;;;-2.96;57.06;98482.25;10364225;28;20861;-88
2022/12/14 06:10:42;;;;;;;18.60;9.45;;;;;;;-2.89;56.83;98477.81;10364897;28;20427;-88
2022/12/14 06:15:44;;;;;;;17.42;9.77;;;;;;;-2.92;56.58;98460.84;10364127;28;20056;-88
2022/12/14 06:20:46;;;;;;;21.55;9.98;;;;;;;-2.99;56.61;98458.50;10380849;28;20061;-89
2022/12/14 06:25:53;;;;;;;21.73;10.00;;;;;;;-3.14;56.67;98459.78;10383579;28;20072;-89
2022/12/14 06:30:54;;;;;;;23.73;10.05;;;;;;;-3.23;56.89;98454.94;10361878;28;20046;-89
2022/12/14 06:35:56;;;;;;;20.20;10.15;;;;;;;-3.35;56.94;98450.16;10365497;28;20077;-89
2022/12/14 06:40:58;;;;;;;18.83;10.10;;;;;;;-3.36;57.19;98453.59;10381277;28;20053;-88
2022/12/14 06:46:00;;;;;;;17.58;9.65;;;;;;;-3.39;57.17;98447.72;10363709;28;20053;-88
2022/12/14 06:51:04;;;;;;;19.08;10.30;;;;;;;-3.30;56.90;98442.34;10370335;28;20060;-89
2022/12/14 06:56:07;;;;;;;19.45;10.10;;;;;;;-3.22;57.17;98445.56;10366862;28;20073;-89
2022/12/14 07:01:16;;;;;;;20.95;10.23;;;;;;;-3.33;56.60;98456.06;10363302;28;20054;-88
2022/12/14 07:06:19;;;;;;;18.13;10.27;;;;;;;-3.27;56.98;98447.38;10378190;28;20062;-85
2022/12/14 07:11:21;;;;;;;17.83;10.23;;;;;;;-3.17;56.82;98443.69;10377550;28;20064;-84
2022/12/14 07:16:35;;;;;;;17.98;9.88;;;;;;;-3.12;56.49;98439.31;10359237;28;20084;-86
2022/12/14 07:21:45;;;;;;;17.15;9.70;;;;;;;-2.98;57.15;98432.06;10358413;28;20064;-86
2022/12/14 07:26:46;;;;;;;17.95;9.98;;;;;;;-3.19;57.76;98430.13;10358958;28;20482;-85
2022/12/14 07:31:51;;;;;;;17.35;10.18;;;;;;;-3.11;57.89;98448.63;10359521;28;20065;-86
2022/12/14 07:37:03;;;;;;;18.48;9.98;;;;;;;-2.93;58.89;98460.88;10360177;28;20061;-85
2022/12/14 07:42:08;;;;;;;20.48;11.13;;;;;;;-3.12;59.05;98472.53;10359823;28;20059;-86
2022/12/14 07:47:13;;;;;;;22.60;11.30;;;;;;;-2.98;59.65;98472.97;10359032;28;20053;-86
2022/12/14 07:52:18;;;;;;;20.48;10.98;;;;;;;-2.81;59.37;98469.94;10357853;28;20058;-86
2022/12/14 07:57:21;;;;;;;18.67;10.30;;;;;;;-2.95;59.69;98470.31;10357871;28;20085;-85
2022/12/14 08:02:25;;;;;;;19.92;11.52;;;;;;;-2.77;59.84;98469.78;10370123;28;20053;-86
2022/12/14 08:07:30;;;;;;;19.17;11.43;;;;;;;-2.88;59.93;98482.06;10358345;28;20080;-86
2022/12/14 08:12:33;;;;;;;20.85;12.40;;;;;;;-2.87;60.11;98481.16;10358074;28;20143;-86
2022/12/14 08:17:36;;;;;;;21.50;12.15;;;;;;;-2.96;60.43;98478.91;10355226;28;20064;-87
2022/12/14 08:22:56;;;;;;;22.65;12.88;;;;;;;-2.94;61.23;98466.91;10354706;28;20063;-86
2022/12/14 08:27:57;;;;;;;21.30;12.68;;;;;;;-2.70;60.82;98471.28;10354179;28;20068;-85
2022/12/14 08:33:06;;;;;;;22.60;13.15;;;;;;;-2.57;61.14;98464.09;10374522;28;20056;-87
2022/12/14 08:38:09;;;;;;;23.08;13.20;;;;;;;-2.90;61.06;98458.25;10356871;28;20208;-87
2022/12/14 08:43:15;;;;;;;23.90;13.77;;;;;;;-3.14;61.92;98461.53;10370590;28;20416;-87
2022/12/14 08:48:25;;;;;;;25.52;13.63;;;;;;;-3.15;61.94;98463.22;10359040;28;20061;-86
2022/12/14 08:53:28;;;;;;;24.27;14.57;;;;;;;-3.05;61.98;98467.19;10374912;28;20085;-86
2022/12/14 08:58:46;;;;;;;22.58;13.63;;;;;;;-3.30;62.86;98475.56;10355743;28;20111;-86
2022/12/14 09:03:54;;;;;;;22.95;13.65;;;;;;;-2.91;62.75;98477.03;10374909;28;20503;-87
2022/12/14 09:09:03;;;;;;;23.95;14.43;;;;;;;-2.62;62.24;98477.00;10372262;28;20061;-87
2022/12/14 09:14:09;;;;;;;25.63;15.15;;;;;;;-2.29;61.56;98482.81;10371130;28;20179;-86
2022/12/14 09:19:11;;;;;;;24.75;13.90;;;;;;;-2.20;61.29;98477.41;10363531;28;21009;-85
2022/12/14 09:24:13;;;;;;;25.60;14.07;;;;;;;-2.25;61.54;98479.28;10383090;28;20085;-85
2022/12/14 09:29:18;;;;;;;28.73;15.30;;;;;;;-2.15;61.38;98486.63;10362131;28;20061;-87
2022/12/14 09:34:22;;;;;;;23.50;13.85;;;;;;;-2.01;61.13;98487.03;10379876;28;20049;-86
2022/12/14 09:39:25;;;;;;;24.33;13.80;;;;;;;-2.07;61.32;98487.22;10360446;28;20061;-88
2022/12/14 09:45:07;;;;;;;27.60;14.18;;;;;;;-2.09;61.42;98480.47;10380350;28;20064;-87
2022/12/14 09:50:26;;;;;;;25.13;13.98;;;;;;;-1.80;60.92;98476.94;10367735;28;20057;-87
2022/12/14 09:55:51;;;;;;;22.85;14.18;;;;;;;-1.95;61.00;98473.16;10363818;28;20996;-87
2022/12/14 10:01:50;;;;;;;21.90;12.32;;;;;;;-1.88;61.52;98476.38;10360649;28;20518;-85
2022/12/14 10:07:38;;;;;;;;;;;;;;;-2.05;61.42;98476.91;10215829;28;20055;-86
2022/12/14 10:13:17;;;;;;;21.20;12.68;;;;;;;-1.80;60.65;98471.81;10366840;28;19929;-84
2022/12/14 10:18:46;;;;;;;19.98;12.05;;;;;;;-1.61;60.15;98468.59;10379421;28;20053;-86
2022/12/14 10:24:59;;;;;;;25.13;12.98;;;;;;;-1.52;60.15;98470.84;10378475;28;20077;-85
2022/12/14 10:30:07;;;;;;;23.02;13.02;;;;;;;-0.75;59.43;98462.88;10357921;28;20053;-84
2022/12/14 10:36:05;;;;;;;19.85;11.88;;;;;;;-0.69;58.19;98461.81;10380654;28;20064;-84
2022/12/14 10:47:19;;;;;;;22.13;12.35;;;;;;;-0.80;58.59;98444.25;10203592;29;20146;-83
2022/12/14 10:52:27;;;;;;;20.27;12.63;;;;;;;-0.85;58.30;98441.03;10192664;29;20070;-84
2022/12/14 10:57:34;;;;;;;21.40;13.07;;;;;;;-0.75;58.42;98438.94;10170016;29;20164;-83
2022/12/14 11:02:56;;;;;;;22.98;12.45;;;;;;;-0.61;58.05;98434.97;10324145;28;20056;-84
2022/12/14 11:08:14;;;;;;;22.40;12.70;;;;;;;-0.34;57.90;98431.31;10366698;28;20058;-85
2022/12/14 11:13:54;;;;;;;23.60;11.05;;;;;;;-0.29;56.83;98430.31;10377151;28;20056;-85
2022/12/14 11:19:25;;;;;;;24.60;12.25;;;;;;;-0.00;56.94;98427.38;10358843;28;20365;-86
2022/12/14 11:24:45;;;;;;;20.65;11.68;;;;;;;0.70;55.49;98430.34;10373320;28;20054;-86
2022/12/14 11:30:03;;;;;;;20.65;11.93;;;;;;;0.74;54.42;98416.47;10374595;28;20065;-85
2022/12/14 11:35:49;;;;;;;18.75;11.70;;;;;;;0.51;54.58;98402.88;10360317;28;20153;-84
2022/12/14 11:40:53;;;;;;;19.98;11.50;;;;;;;0.74;55.63;98401.03;10356009;28;20057;-84
2022/12/14 11:46:00;;;;;;;21.58;12.10;;;;;;;0.98;54.86;98389.63;10372377;28;20495;-83
2022/12/14 11:51:14;;;;;;;18.50;11.30;;;;;;;0.59;54.11;98407.66;10363976;28;20136;-84
2022/12/14 11:56:30;;;;;;;17.98;10.75;;;;;;;0.37;55.13;98402.63;10350246;28;20076;-84
2022/12/14 12:01:33;;;;;;;18.73;11.05;;;;;;;0.38;55.26;98403.47;10350572;28;20072;-84
2022/12/14 12:06:42;;;;;;;23.45;11.82;;;;;;;0.50;54.85;98414.03;10375353;28;20116;-83
2022/12/14 12:12:20;;;;;;;19.80;11.50;;;;;;;0.45;53.76;98421.13;10359959;28;20657;-85
2022/12/14 12:17:49;;;;;;;19.45;11.60;;;;;;;0.31;54.75;98423.47;10363217;28;20064;-83
2022/12/14 12:23:49;;;;;;;20.70;12.23;;;;;;;0.30;54.55;98416.63;10372168;28;20064;-83
2022/12/14 12:29:34;;;;;;;20.87;12.13;;;;;;;0.16;55.10;98403.53;10356211;28;20192;-83
2022/12/14 12:34:54;;;;;;;22.52;11.60;;;;;;;0.18;55.29;98413.78;10359218;28;20084;-84
2022/12/14 12:40:23;;;;;;;30.08;17.35;;;;;;;0.09;55.68;98409.00;10357371;28;20855;-84
2022/12/14 12:45:40;;;;;;;22.95;12.63;;;;;;;-0.04;56.25;98416.38;10354579;28;20079;-84
2022/12/14 12:50:47;;;;;;;21.00;13.57;;;;;;;0.13;56.35;98411.41;10370657;28;20061;-83
2022/12/14 12:56:09;;;;;;;20.90;13.02;;;;;;;0.11;55.94;98417.50;10350929;28;20060;-84
2022/12/14 13:01:40;;;;;;;20.92;13.75;;;;;;;0.21;55.96;98408.50;10347440;28;20132;-84
2022/12/14 13:06:57;;;;;;;20.00;12.57;;;;;;;0.26;56.16;98414.28;10364607;28;20555;-83
2022/12/14 13:12:36;;;;;;;25.95;16.60;;;;;;;0.13;55.96;98423.41;10369339;28;20080;-83
2022/12/14 13:17:56;;;;;;;22.08;13.18;;;;;;;0.19;55.79;98425.72;10370868;28;20061;-83
2022/12/14 13:23:11;;;;;;;23.45;13.27;;;;;;;0.14;56.00;98427.63;10353362;28;20153;-83
2022/12/14 13:28:55;;;;;;;22.25;12.68;;;;;;;0.13;55.79;98431.13;10359970;28;20068;-83
2022/12/14 13:34:35;;;;;;;22.20;13.07;;;;;;;0.12;55.92;98426.84;10351865;28;20056;-83
2022/12/14 13:40:06;;;;;;;21.45;13.00;;;;;;;0.13;55.70;98425.97;10360564;28;20534;-83
2022/12/14 13:45:48;;;;;;;28.17;15.63;;;;;;;-0.21;56.29;98429.09;10348170;28;20068;-83
2022/12/14 13:51:10;;;;;;;22.08;12.90;;;;;;;0.01;56.14;98437.59;10364614;28;20048;-83
2022/12/14 13:56:23;;;;;;;23.48;14.55;;;;;;;0.02;55.96;98438.41;10344369;28;20054;-83
2022/12/14 14:01:47;;;;;;;19.05;12.73;;;;;;;-0.08;56.24;98444.84;10356885;28;20089;-83
2022/12/14 14:07:23;;;;;;;20.75;12.82;;;;;;;-0.15;56.11;98444.28;10365873;28;20054;-84
2022/12/14 14:12:36;;;;;;;21.70;12.85;;;;;;;-0.18;55.89;98439.25;10296910;28;20049;-84
2022/12/14 14:17:45;;;;;;;18.95;12.10;;;;;;;-0.27;56.08;98455.03;10374441;28;20057;-83
2022/12/14 14:23:15;;;;;;;21.50;12.73;;;;;;;-0.34;55.99;98449.31;10355262;28;20516;-83
2022/12/14 14:28:26;;;;;;;20.20;12.18;;;;;;;-0.31;56.60;98454.31;10353379;28;20061;-83
2022/12/14 14:34:03;;;;;;;23.65;13.57;;;;;;;-0.33;56.43;98457.81;10367311;28;20054;-87
2022/12/14 14:39:59;;;;;;;21.95;12.68;;;;;;;-0.44;56.43;98453.13;10367445;28;20131;-85
2022/12/14 14:45:36;;;;;;;19.30;11.98;;;;;;;-0.59;57.03;98450.28;10374385;28;20053;-84
2022/12/14 14:51:47;;;;;;;20.38;12.20;;;;;;;-0.78;57.23;98468.13;10368594;28;20446;-84
2022/12/14 14:57:35;;;;;;;23.25;13.38;;;;;;;-0.85;57.71;98482.09;10267087;28;20069;-84
2022/12/14 15:02:40;;;;;;;15.60;9.80;;;;;;;-0.93;57.70;98493.53;10320814;28;20076;-86
2022/12/14 15:07:54;;;;;;;20.58;12.90;;;;;;;-1.01;58.12;98506.63;10323293;28;20500;-85
2022/12/14 15:13:55;;;;;;;20.65;12.93;;;;;;;-1.31;57.63;98512.84;10316949;28;20118;-84
2022/12/14 15:19:32;;;;;;;23.02;14.13;;;;;;;-1.57;58.21;98521.41;10336697;28;20062;-87
2022/12/14 15:24:46;;;;;;;25.65;15.60;;;;;;;-1.90;58.77;98529.38;10334956;28;20062;-85
2022/12/14 15:30:26;;;;;;;33.53;17.35;;;;;;;-2.20;59.10;98542.25;10315330;28;20631;-84
2022/12/14 15:35:45;;;;;;;37.78;20.58;;;;;;;-2.34;59.75;98535.88;10317256;28;20564;-85
2022/12/14 15:41:26;;;;;;;26.30;16.48;;;;;;;-2.34;60.23;98544.41;10336739;28;20182;-85
2022/12/14 15:47:46;;;;;;;26.75;15.80;;;;;;;-2.19;60.75;98556.75;10253515;28;20070;-86
2022/12/14 15:53:13;;;;;;;29.17;15.60;;;;;;;-2.00;60.70;98557.03;10349443;28;20116;-85
2022/12/14 15:58:53;;;;;;;27.20;14.65;;;;;;;-1.85;60.61;98553.97;10372563;28;20053;-86
2022/12/14 16:04:18;;;;;;;23.05;14.88;;;;;;;-1.74;60.67;98558.75;10367019;28;20989;-85
2022/12/14 16:09:28;;;;;;;26.67;14.02;;;;;;;-1.63;60.52;98565.19;10365687;28;20061;-86
2022/12/14 16:14:56;;;;;;;26.40;14.95;;;;;;;-1.60;60.51;98571.94;10378160;28;20053;-84
2022/12/14 16:20:24;;;;;;;23.15;14.45;;;;;;;-1.63;60.83;98570.31;10359698;28;20145;-85
2022/12/14 16:25:27;;;;;;;21.13;13.68;;;;;;;-1.47;60.82;98578.38;10356857;28;20139;-84
2022/12/14 16:30:32;;;;;;;24.33;14.75;;;;;;;-1.42;60.97;98584.16;10372524;28;20067;-86
2022/12/14 16:35:36;;;;;;;25.90;15.02;;;;;;;-1.36;60.75;98592.50;10363075;28;20065;-87
2022/12/14 16:40:56;;;;;;;27.48;16.35;;;;;;;-1.35;60.78;98588.22;10363824;28;20065;-87
2022/12/14 16:46:16;;;;;;;25.65;16.23;;;;;;;-1.25;61.21;98590.41;10374861;28;20065;-85
2022/12/14 16:51:32;;;;;;;27.08;17.38;;;;;;;-1.17;60.91;98582.47;10354042;28;20108;-86
2022/12/14 16:57:23;;;;;;;28.92;17.10;;;;;;;-1.16;61.15;98594.38;10365089;28;20053;-86
2022/12/14 17:02:54;;;;;;;27.20;16.70;;;;;;;-1.16;60.92;98600.38;10374933;28;20060;-86
2022/12/14 17:08:03;;;;;;;27.92;15.07;;;;;;;-1.18;60.56;98611.56;10354977;28;20088;-86
2022/12/14 17:13:05;;;;;;;25.65;14.50;;;;;;;-1.28;60.90;98620.44;10356885;28;20119;-86
2022/12/14 17:18:33;;;;;;;24.15;14.10;;;;;;;-1.12;60.79;98628.50;10372252;28;20080;-85
2022/12/14 17:23:42;;;;;;;24.35;14.48;;;;;;;-1.22;60.73;98631.34;10352298;28;20078;-86
2022/12/14 17:29:04;;;;;;;23.70;13.97;;;;;;;-1.19;60.92;98645.81;10371990;28;20148;-86
2022/12/14 17:34:09;;;;;;;27.42;15.48;;;;;;;-1.13;61.00;98644.75;10365318;28;20080;-87
2022/12/14 17:39:16;;;;;;;26.77;15.90;;;;;;;-1.08;60.92;98643.72;10365075;28;20061;-88
2022/12/14 17:44:35;;;;;;;22.15;14.23;;;;;;;-0.99;60.98;98643.41;10379363;28;20081;-87
2022/12/14 17:49:41;;;;;;;24.98;15.35;;;;;;;-1.00;60.97;98651.16;10363818;28;20156;-85
2022/12/14 17:54:43;;;;;;;25.95;16.17;;;;;;;-0.96;61.04;98663.81;10359336;28;20057;-85
2022/12/14 18:05:19;;;;;;;27.83;15.50;;;;;;;-1.02;60.92;98661.47;10370261;28;20583;-84
2022/12/14 18:10:43;;;;;;;24.65;14.43;;;;;;;-1.10;61.24;98666.00;10377646;28;20126;-85
2022/12/14 18:15:52;;;;;;;24.63;14.90;;;;;;;-1.06;61.21;98664.19;10353990;28;20054;-85
2022/12/14 18:21:01;;;;;;;25.48;15.27;;;;;;;-1.11;61.38;98661.78;10361988;28;20493;-84
2022/12/14 20:25:03;;;;;;;30.77;18.80;;;;;;;-0.92;61.87;98762.91;10370536;28;20053;-85
2022/12/14 20:30:12;;;;;;;26.20;16.63;;;;;;;-0.86;61.94;98762.72;10369563;28;20447;-84
2022/12/14 20:35:17;;;;;;;28.05;17.30;;;;;;;-0.81;61.79;98770.28;10371056;28;20079;-86
2022/12/14 20:40:19;;;;;;;24.52;16.77;;;;;;;-0.78;61.80;98768.44;10355322;28;20507;-85
2022/12/14 20:45:21;;;;;;;29.52;17.25;;;;;;;-0.72;61.89;98775.94;10357749;28;20057;-84
2022/12/14 20:50:23;;;;;;;30.25;18.77;;;;;;;-0.81;61.69;98776.25;10375357;28;20057;-85
2022/12/14 20:55:25;;;;;;;32.72;21.73;;;;;;;-0.85;61.70;98779.81;10352873;28;20061;-85
2022/12/14 21:00:27;;;;;;;32.70;21.17;;;;;;;-1.00;61.92;98785.41;10369151;28;20426;-84
2022/12/14 21:05:28;;;;;;;29.77;16.65;;;;;;;-1.10;62.36;98796.03;10355240;28;20111;-84
2022/12/14 21:10:35;;;;;;;30.63;18.52;;;;;;;-1.03;62.38;98789.81;10345858;28;20545;-85
2022/12/14 21:15:39;;;;;;;28.25;19.02;;;;;;;-0.98;62.14;98788.75;10355469;28;20061;-85
2022/12/14 21:20:41;;;;;;;32.03;18.98;;;;;;;-0.87;62.02;98779.00;10351058;28;20391;-83
2022/12/14 21:25:46;;;;;;;28.70;18.55;;;;;;;-0.87;62.13;98784.16;10370283;28;20064;-85
2022/12/14 21:30:52;;;;;;;31.35;19.30;;;;;;;-0.83;62.22;98788.28;10354903;28;20139;-86
2022/12/14 21:36:07;;;;;;;33.90;19.15;;;;;;;-0.84;62.05;98785.78;10352699;28;20437;-85
2022/12/14 21:46:47;;;;;;;32.13;19.88;;;;;;;-0.73;61.99;98799.94;10369727;28;20061;-85
2022/12/14 21:51:53;;;;;;;31.15;19.20;;;;;;;-0.68;61.75;98795.50;10352507;28;20144;-85
2022/12/14 22:02:22;;;;;;;35.85;20.95;;;;;;;-0.79;61.57;98800.13;10371618;28;20056;-84
2022/12/14 22:07:30;;;;;;;34.25;20.45;;;;;;;-0.98;62.00;98809.28;10372412;28;20729;-85
2022/12/14 22:12:34;;;;;;;35.33;21.92;;;;;;;-1.06;61.92;98810.44;10353000;28;20411;-86
2022/12/14 22:17:37;;;;;;;38.15;21.98;;;;;;;-1.26;62.05;98814.44;10354958;28;20061;-86
2022/12/14 22:22:40;;;;;;;34.05;21.42;;;;;;;-1.36;62.30;98825.00;10343547;28;20099;-85
2022/12/14 22:27:43;;;;;;;35.08;21.08;;;;;;;-1.49;62.34;98823.72;10377148;28;20058;-86
2022/12/14 22:32:51;;;;;;;34.78;20.77;;;;;;;-1.47;62.33;98819.38;10360500;28;20104;-86
2022/12/14 22:37:58;;;;;;;33.85;20.70;;;;;;;-1.45;62.35;98822.72;10365026;28;20064;-85
2022/12/14 22:43:14;;;;;;;37.85;22.08;;;;;;;-1.34;62.58;98808.72;10361046;28;20627;-85
2022/12/14 22:48:15;;;;;;;30.63;19.52;;;;;;;-1.28;62.73;98816.22;10359827;28;20061;-85
2022/12/14 22:53:17;;;;;;;36.05;21.80;;;;;;;-1.36;62.31;98815.59;10376247;28;20064;-85
2022/12/14 22:58:20;;;;;;;34.47;21.52;;;;;;;-1.48;62.48;98822.81;10379150;28;20429;-86
2022/12/14 23:03:25;;;;;;;36.78;20.95;;;;;;;-1.41;62.40;98827.72;10360019;28;20050;-86
2022/12/14 23:08:27;;;;;;;37.33;22.55;;;;;;;-1.39;62.41;98831.06;10357318;28;20105;-85
